Time;durP1;ratioP1;P1;durP2;ratioP2;P2;SDS_P1;SDS_P2;PMS_P1;PMS_P2;Temp;Humidity;BMP_temperature;BMP_pressure;BME280_temperature;BME280_humidity;BME280_pressure;Samples;Min_cycle;Max_cycle;Signal;HPM_P1;HPM_P2
2022/02/16 00:01:16;;;;;;;2.42;2.22;;;6.30;99.90;;;;;;5033765;28;20202;-64
2022/02/16 00:03:43;;;;;;;2.55;1.70;;;6.30;99.90;;;;;;5033388;28;20229;-63
2022/02/16 00:06:10;;;;;;;2.10;1.85;;;6.30;99.90;;;;;;5033638;28;20209;-63
2022/02/16 00:08:37;;;;;;;4.32;1.90;;;6.40;99.90;;;;;;5033764;28;20298;-63
2022/02/16 00:11:04;;;;;;;2.78;2.22;;;6.40;99.90;;;;;;5035651;28;20213;-63
2022/02/16 00:13:31;;;;;;;4.68;2.03;;;6.50;99.90;;;;;;5035020;28;20229;-65
2022/02/16 00:15:59;;;;;;;2.22;1.70;;;6.50;99.90;;;;;;5033584;28;20264;-63
2022/02/16 00:18:27;;;;;;;2.97;1.98;;;6.50;99.90;;;;;;5033589;28;20213;-63
2022/02/16 00:20:54;;;;;;;3.35;2.22;;;6.50;99.90;;;;;;5033237;28;20206;-63
2022/02/16 00:23:22;;;;;;;2.20;2.00;;;6.60;99.90;;;;;;5033159;28;20233;-63
2022/02/16 00:25:49;;;;;;;2.22;2.03;;;6.60;99.90;;;;;;5037227;28;20186;-64
2022/02/16 00:28:17;;;;;;;3.53;2.20;;;6.60;99.90;;;;;;5038145;28;20556;-63
2022/02/16 00:30:45;;;;;;;2.90;1.92;;;6.70;99.90;;;;;;5037790;28;20232;-63
2022/02/16 00:33:12;;;;;;;2.55;1.73;;;6.70;99.90;;;;;;5037359;28;20228;-63
2022/02/16 00:35:40;;;;;;;3.10;1.83;;;6.70;99.90;;;;;;5037186;28;20206;-63
2022/02/16 00:38:07;;;;;;;2.55;1.67;;;6.70;99.90;;;;;;5037294;28;20206;-63
2022/02/16 00:40:34;;;;;;;1.85;1.75;;;6.80;99.90;;;;;;5036925;28;20577;-64
2022/02/16 00:43:01;;;;;;;2.65;1.73;;;6.80;99.90;;;;;;5037070;28;20209;-63
2022/02/16 00:45:31;;;;;;;1.85;1.75;;;6.80;99.90;;;;;;5037261;28;20199;-63
2022/02/16 00:47:58;;;;;;;3.40;1.80;;;6.80;99.90;;;;;;5039941;28;20264;-63
2022/02/16 00:50:25;;;;;;;2.63;2.05;;;6.90;99.90;;;;;;5045262;28;20663;-64
2022/02/16 00:52:53;;;;;;;1.65;1.42;;;6.90;99.90;;;;;;5044223;28;20206;-64
2022/02/16 00:55:20;;;;;;;1.35;1.25;;;6.90;99.90;;;;;;5044755;28;20222;-63
2022/02/16 00:57:47;;;;;;;2.05;1.50;;;6.90;99.90;;;;;;5042119;28;20712;-64
2022/02/16 01:00:16;;;;;;;1.83;1.60;;;6.90;99.90;;;;;;5038610;28;20221;-63
2022/02/16 01:02:43;;;;;;;2.05;1.85;;;6.90;99.90;;;;;;5038044;28;20209;-63
2022/02/16 01:05:10;;;;;;;1.80;1.52;;;7.00;99.90;;;;;;5044124;28;20218;-63
2022/02/16 01:07:37;;;;;;;4.18;1.75;;;7.00;99.90;;;;;;5043236;28;20247;-63
2022/02/16 01:10:07;;;;;;;2.10;1.90;;;7.00;99.90;;;;;;5043359;28;20206;-64
2022/02/16 01:12:35;;;;;;;3.10;1.70;;;7.00;99.90;;;;;;5042391;28;20214;-64
2022/02/16 01:15:02;;;;;;;2.08;1.55;;;7.00;99.90;;;;;;5041661;28;20222;-63
2022/02/16 01:17:29;;;;;;;2.75;2.05;;;7.00;99.90;;;;;;5039409;28;20242;-64
2022/02/16 01:19:56;;;;;;;3.05;1.70;;;7.00;99.90;;;;;;5047681;28;20705;-64
2022/02/16 01:22:23;;;;;;;2.10;1.90;;;7.00;99.90;;;;;;5044684;28;20213;-64
2022/02/16 01:24:50;;;;;;;2.60;1.55;;;7.00;99.90;;;;;;5045724;28;20226;-64
2022/02/16 01:27:19;;;;;;;3.75;2.38;;;7.00;99.90;;;;;;5052594;28;20199;-64
2022/02/16 01:29:46;;;;;;;2.42;1.33;;;7.10;99.90;;;;;;5037231;28;20256;-65
2022/02/16 01:32:13;;;;;;;1.80;1.63;;;7.10;99.90;;;;;;5036222;28;20203;-64
2022/02/16 01:34:40;;;;;;;2.72;1.30;;;7.10;99.90;;;;;;5036064;28;20229;-63
2022/02/16 01:37:07;;;;;;;2.25;1.42;;;7.10;99.90;;;;;;5035328;28;20214;-63
2022/02/16 01:39:34;;;;;;;2.28;1.27;;;7.10;99.90;;;;;;5035779;28;20213;-63
2022/02/16 01:42:02;;;;;;;3.95;1.83;;;7.10;99.90;;;;;;5036111;28;20229;-63
2022/02/16 01:44:31;;;;;;;1.75;1.20;;;7.20;99.90;;;;;;5035917;28;20214;-63
2022/02/16 01:47:04;;;;;;;2.53;1.77;;;7.10;99.90;;;;;;5035774;28;20245;-63
2022/02/16 01:49:31;;;;;;;1.48;1.35;;;7.20;99.90;;;;;;5036069;28;20611;-63
2022/02/16 01:51:59;;;;;;;3.05;1.38;;;7.20;99.90;;;;;;5036203;28;20217;-63
2022/02/16 01:54:26;;;;;;;1.55;1.40;;;7.20;99.90;;;;;;5035439;28;20726;-63
2022/02/16 01:56:54;;;;;;;1.60;1.50;;;7.20;99.90;;;;;;5035872;28;20210;-63
2022/02/16 01:59:23;;;;;;;2.90;1.40;;;7.20;99.90;;;;;;5035429;28;20293;-63
2022/02/16 02:01:52;;;;;;;1.40;1.17;;;7.20;99.90;;;;;;5035449;28;20686;-63
2022/02/16 02:04:20;;;;;;;1.40;1.10;;;7.20;99.90;;;;;;5035096;28;20581;-64
2022/02/16 02:06:48;;;;;;;2.95;1.50;;;7.20;99.90;;;;;;5035554;28;20324;-64
2022/02/16 02:09:15;;;;;;;2.60;1.50;;;7.20;99.90;;;;;;5035322;28;20198;-62
2022/02/16 02:11:42;;;;;;;4.25;1.70;;;7.20;99.90;;;;;;5035679;28;20207;-63
2022/02/16 02:14:11;;;;;;;4.40;1.30;;;7.20;99.90;;;;;;5035286;28;20222;-63
2022/02/16 02:16:39;;;;;;;1.48;1.20;;;7.30;99.90;;;;;;5035063;28;20740;-63
2022/02/16 02:19:08;;;;;;;1.90;1.15;;;7.20;99.90;;;;;;5035364;28;20207;-62
2022/02/16 02:21:37;;;;;;;1.75;1.13;;;7.20;99.90;;;;;;5035115;28;20199;-63
2022/02/16 02:24:05;;;;;;;1.35;1.25;;;7.20;99.90;;;;;;5034844;28;20234;-64
2022/02/16 02:26:32;;;;;;;1.40;1.20;;;7.20;99.90;;;;;;5035992;28;20550;-63
2022/02/16 02:29:01;;;;;;;1.77;1.40;;;7.30;99.90;;;;;;5034726;28;20202;-64
2022/02/16 02:31:30;;;;;;;1.55;1.45;;;7.30;99.90;;;;;;5035029;28;20198;-64
2022/02/16 02:33:57;;;;;;;1.40;1.20;;;7.30;99.90;;;;;;5034443;28;20222;-64
2022/02/16 02:36:24;;;;;;;2.53;1.42;;;7.30;99.90;;;;;;5035000;28;20224;-63
2022/02/16 02:38:52;;;;;;;1.90;1.60;;;7.30;99.90;;;;;;5034647;28;20686;-63
2022/02/16 02:41:19;;;;;;;1.65;1.20;;;7.30;99.90;;;;;;5034545;28;20206;-64
2022/02/16 02:43:48;;;;;;;1.33;1.20;;;7.30;99.90;;;;;;5034694;28;20223;-63
2022/02/16 02:46:15;;;;;;;1.95;1.08;;;7.30;99.90;;;;;;5034915;28;20202;-63
2022/02/16 02:48:43;;;;;;;0.95;0.85;;;7.30;99.90;;;;;;5033480;28;20198;-63
2022/02/16 02:51:11;;;;;;;3.60;2.28;;;7.30;99.90;;;;;;5035679;28;20209;-63
2022/02/16 02:53:39;;;;;;;1.60;1.20;;;7.30;99.90;;;;;;5039666;28;20223;-64
2022/02/16 02:56:08;;;;;;;1.98;1.13;;;7.30;99.90;;;;;;5040746;28;20225;-64
2022/02/16 02:58:35;;;;;;;1.45;1.35;;;7.30;99.90;;;;;;5038366;28;20231;-63
2022/02/16 03:01:04;;;;;;;1.65;1.35;;;7.30;99.90;;;;;;5037229;28;20210;-63
2022/02/16 03:03:33;;;;;;;1.10;1.00;;;7.40;99.90;;;;;;5036324;28;20250;-63
2022/02/16 03:06:00;;;;;;;1.67;1.20;;;7.40;99.90;;;;;;5034884;28;20203;-62
2022/02/16 03:08:27;;;;;;;1.95;1.10;;;7.40;99.90;;;;;;5034155;28;20206;-65
2022/02/16 03:10:54;;;;;;;2.45;1.30;;;7.40;99.90;;;;;;5034646;28;20222;-64
2022/02/16 03:13:22;;;;;;;1.38;1.05;;;7.40;99.90;;;;;;5034057;28;20724;-63
2022/02/16 03:15:51;;;;;;;2.08;1.20;;;7.40;99.90;;;;;;5033951;28;20214;-63
2022/02/16 03:18:20;;;;;;;1.73;1.50;;;7.30;99.90;;;;;;5042374;28;20222;-63
2022/02/16 03:20:48;;;;;;;2.42;1.30;;;7.40;99.90;;;;;;5041256;28;20237;-64
2022/02/16 03:23:15;;;;;;;1.73;1.17;;;7.30;99.90;;;;;;5036773;28;20226;-63
2022/02/16 03:25:42;;;;;;;1.55;1.45;;;7.30;99.90;;;;;;5036060;28;20187;-63
2022/02/16 03:28:09;;;;;;;1.10;1.00;;;7.30;99.90;;;;;;5035036;28;20582;-64
2022/02/16 03:30:38;;;;;;;3.80;1.10;;;7.30;99.90;;;;;;5033926;28;20206;-64
2022/02/16 03:33:07;;;;;;;1.30;1.20;;;7.30;99.90;;;;;;5033798;28;20214;-64
2022/02/16 03:35:34;;;;;;;1.20;1.10;;;7.30;99.90;;;;;;5033864;28;20241;-64
2022/02/16 03:38:01;;;;;;;1.10;0.98;;;7.20;99.90;;;;;;5033832;28;20209;-64
2022/02/16 03:40:30;;;;;;;1.40;1.30;;;7.30;99.90;;;;;;5034337;28;20202;-63
2022/02/16 03:42:57;;;;;;;2.17;1.25;;;7.20;99.90;;;;;;5045812;28;20218;-65
2022/02/16 03:45:24;;;;;;;2.33;1.30;;;7.30;99.90;;;;;;5039257;28;20662;-64
2022/02/16 03:47:53;;;;;;;1.20;1.10;;;7.30;99.90;;;;;;5036432;28;20202;-63
2022/02/16 03:50:22;;;;;;;2.50;1.25;;;7.30;99.90;;;;;;5034918;28;20213;-64
2022/02/16 03:52:50;;;;;;;1.13;1.02;;;7.30;99.90;;;;;;5033751;28;20237;-63
2022/02/16 03:55:17;;;;;;;2.58;1.50;;;7.30;99.90;;;;;;5033585;28;20289;-64
2022/02/16 03:57:44;;;;;;;2.10;1.30;;;7.30;99.90;;;;;;5033381;28;20201;-63
2022/02/16 04:00:12;;;;;;;1.30;1.15;;;7.40;99.90;;;;;;5032878;28;20206;-64
2022/02/16 04:02:39;;;;;;;1.83;1.25;;;7.40;99.90;;;;;;5033450;28;20206;-63
2022/02/16 04:05:09;;;;;;;1.80;1.00;;;7.40;99.90;;;;;;5033895;28;20215;-64
2022/02/16 04:09:19;;;;;;;1.50;1.40;;;7.40;99.90;;;;;;5156125;27;20540;-63
2022/02/16 04:11:46;;;;;;;1.63;1.27;;;7.40;99.90;;;;;;5152697;27;20669;-64
2022/02/16 04:14:13;;;;;;;1.50;1.40;;;7.40;99.90;;;;;;5163739;27;20750;-62
2022/02/16 04:16:40;;;;;;;2.60;1.00;;;7.50;99.90;;;;;;5173351;27;20205;-63
2022/02/16 04:19:07;;;;;;;1.17;1.00;;;7.50;99.90;;;;;;5195194;22;20575;-59
2022/02/16 04:21:34;;;;;;;1.40;1.25;;;7.50;99.90;;;;;;5131341;28;20221;-59
2022/02/16 04:24:01;;;;;;;1.35;1.25;;;7.40;99.90;;;;;;5131533;28;20203;-60
2022/02/16 04:26:30;;;;;;;1.50;1.40;;;7.40;99.90;;;;;;5131618;28;20207;-59
2022/02/16 04:28:57;;;;;;;1.20;1.10;;;7.40;99.90;;;;;;5131515;28;20220;-59
2022/02/16 04:31:24;;;;;;;1.40;1.30;;;7.40;99.90;;;;;;5136740;28;20219;-59
2022/02/16 04:33:51;;;;;;;2.00;1.63;;;7.40;99.90;;;;;;5137927;28;20203;-59
2022/02/16 04:36:25;;;;;;;1.05;0.90;;;7.40;99.90;;;;;;5133480;28;20214;-59
2022/02/16 04:38:52;;;;;;;1.45;1.35;;;7.30;99.90;;;;;;5136068;28;20179;-59
2022/02/16 04:41:20;;;;;;;1.50;1.40;;;7.30;99.90;;;;;;5141208;28;20218;-59
2022/02/16 04:43:48;;;;;;;2.88;1.33;;;7.30;99.90;;;;;;5143045;28;20202;-60
2022/02/16 04:46:15;;;;;;;1.60;1.30;;;7.20;99.90;;;;;;5137635;28;20250;-60
2022/02/16 04:48:43;;;;;;;1.48;1.38;;;7.20;99.90;;;;;;5143386;28;20312;-60
2022/02/16 04:51:10;;;;;;;1.50;1.40;;;7.20;99.90;;;;;;5141677;28;20223;-60
2022/02/16 04:53:37;;;;;;;2.20;1.60;;;7.20;99.90;;;;;;5142332;28;20199;-60
2022/02/16 04:56:06;;;;;;;2.47;1.33;;;7.10;99.90;;;;;;5142229;28;20214;-60
2022/02/16 04:58:34;;;;;;;1.58;1.48;;;7.20;99.90;;;;;;5135653;28;20218;-60
2022/02/16 05:01:02;;;;;;;1.25;1.15;;;7.10;99.90;;;;;;5132166;28;20596;-60
2022/02/16 05:03:29;;;;;;;3.17;1.35;;;7.10;99.90;;;;;;5132608;28;20203;-59
2022/02/16 05:05:56;;;;;;;1.55;1.45;;;7.20;99.90;;;;;;5130941;28;20203;-60
2022/02/16 05:08:24;;;;;;;1.60;1.50;;;7.20;99.90;;;;;;5130483;28;20219;-59
2022/02/16 05:10:51;;;;;;;1.42;1.33;;;7.20;99.90;;;;;;5130794;28;20223;-60
2022/02/16 05:13:18;;;;;;;1.48;1.38;;;7.20;99.90;;;;;;5130676;28;20206;-60
2022/02/16 05:15:45;;;;;;;2.70;1.98;;;7.20;99.90;;;;;;5131797;28;20203;-60
2022/02/16 05:18:13;;;;;;;2.17;1.42;;;7.20;99.90;;;;;;5130347;28;20199;-60
2022/02/16 05:20:41;;;;;;;2.75;1.85;;;7.20;99.90;;;;;;5116359;28;20224;-60
2022/02/16 05:23:08;;;;;;;1.83;1.40;;;7.20;99.90;;;;;;5116383;28;20282;-60
2022/02/16 05:25:35;;;;;;;3.28;1.98;;;7.20;99.90;;;;;;5116300;28;20199;-60
2022/02/16 05:28:02;;;;;;;2.38;1.80;;;7.20;99.90;;;;;;5117088;28;20226;-60
2022/02/16 05:30:29;;;;;;;4.22;1.55;;;7.20;99.90;;;;;;5117479;28;20595;-60
2022/02/16 05:32:56;;;;;;;1.50;1.40;;;7.20;99.90;;;;;;5116173;28;20203;-60
2022/02/16 05:35:24;;;;;;;4.07;2.10;;;7.10;99.90;;;;;;5116221;28;20207;-60
2022/02/16 05:37:51;;;;;;;3.53;1.67;;;7.10;99.90;;;;;;5116545;28;20199;-59
2022/02/16 05:40:19;;;;;;;3.40;1.60;;;7.10;99.90;;;;;;5116651;28;20243;-63
2022/02/16 05:42:46;;;;;;;1.83;1.67;;;7.10;99.90;;;;;;5116411;28;20207;-60
2022/02/16 05:45:13;;;;;;;1.70;1.60;;;7.10;99.90;;;;;;5116332;28;20200;-60
2022/02/16 05:47:40;;;;;;;2.33;1.80;;;7.10;99.90;;;;;;5116194;28;20230;-60
2022/02/16 05:50:07;;;;;;;4.25;1.90;;;7.20;99.90;;;;;;5117362;28;20230;-62
2022/02/16 05:52:36;;;;;;;4.80;1.70;;;7.20;99.90;;;;;;5116968;28;20580;-60
2022/02/16 05:55:04;;;;;;;2.17;1.52;;;7.20;99.90;;;;;;5116349;28;20580;-59
2022/02/16 05:57:32;;;;;;;1.45;1.30;;;7.20;99.90;;;;;;5116250;28;20206;-59
2022/02/16 06:00:00;;;;;;;2.30;1.50;;;7.30;99.90;;;;;;5115835;28;20607;-59
2022/02/16 06:02:27;;;;;;;1.63;1.52;;;7.30;99.90;;;;;;5115837;28;20211;-60
2022/02/16 06:04:54;;;;;;;2.65;1.70;;;7.30;99.90;;;;;;5115839;28;20211;-59
2022/02/16 06:07:21;;;;;;;3.38;1.70;;;7.30;99.90;;;;;;5115650;28;20200;-59
2022/02/16 06:09:49;;;;;;;1.70;1.50;;;7.30;99.90;;;;;;5115551;28;20228;-59
2022/02/16 06:12:16;;;;;;;1.63;1.52;;;7.40;99.90;;;;;;5116127;28;20291;-59
2022/02/16 06:14:43;;;;;;;2.67;1.58;;;7.30;99.90;;;;;;5115658;28;20210;-59
2022/02/16 06:17:10;;;;;;;1.95;1.45;;;7.30;99.90;;;;;;5115585;28;20565;-60
2022/02/16 06:19:38;;;;;;;1.67;1.55;;;7.40;99.90;;;;;;5115036;28;20597;-59
2022/02/16 06:22:05;;;;;;;3.05;1.98;;;7.40;99.90;;;;;;5115932;28;20289;-59
2022/02/16 06:24:32;;;;;;;2.17;1.85;;;7.40;99.90;;;;;;5115193;28;20294;-59
2022/02/16 06:27:01;;;;;;;1.70;1.60;;;7.50;99.90;;;;;;5115543;28;20562;-60
2022/02/16 06:29:28;;;;;;;1.85;1.52;;;7.50;99.90;;;;;;5114962;28;20232;-59
2022/02/16 06:31:55;;;;;;;1.45;1.35;;;7.50;99.90;;;;;;5114201;28;20215;-59
2022/02/16 06:34:23;;;;;;;2.00;1.90;;;7.50;99.90;;;;;;5115578;28;20604;-59
2022/02/16 06:36:50;;;;;;;2.30;1.98;;;7.50;99.90;;;;;;5116289;28;20207;-59
2022/02/16 06:39:17;;;;;;;1.73;1.52;;;7.50;99.90;;;;;;5115459;28;20242;-59
2022/02/16 06:41:44;;;;;;;1.80;1.40;;;7.50;99.90;;;;;;5115248;28;20203;-59
2022/02/16 06:44:13;;;;;;;3.03;1.77;;;7.60;99.90;;;;;;5115095;28;20207;-59
2022/02/16 06:46:41;;;;;;;2.17;1.80;;;7.60;99.90;;;;;;5115537;28;20202;-59
2022/02/16 06:49:08;;;;;;;1.42;1.30;;;7.60;99.90;;;;;;5114863;28;20219;-59
2022/02/16 06:51:35;;;;;;;3.92;2.25;;;7.60;99.90;;;;;;5115163;28;20207;-58
2022/02/16 06:54:02;;;;;;;2.15;1.95;;;7.60;99.90;;;;;;5114975;28;20215;-58
2022/02/16 06:56:30;;;;;;;3.15;2.13;;;7.70;99.90;;;;;;5114849;28;20238;-59
2022/02/16 06:58:58;;;;;;;2.42;1.70;;;7.70;99.90;;;;;;5114821;28;20191;-59
2022/02/16 07:01:26;;;;;;;2.08;1.75;;;7.70;99.90;;;;;;5114642;28;20741;-59
2022/02/16 07:03:53;;;;;;;1.85;1.40;;;7.70;99.90;;;;;;5115072;28;20207;-59
2022/02/16 07:06:20;;;;;;;1.58;1.48;;;7.70;99.90;;;;;;5114574;28;20686;-59
2022/02/16 07:08:48;;;;;;;2.70;2.13;;;7.80;99.90;;;;;;5114290;28;20212;-61
2022/02/16 07:11:15;;;;;;;2.38;1.45;;;7.80;99.90;;;;;;5114256;28;20699;-58
2022/02/16 07:13:42;;;;;;;1.60;1.50;;;7.80;99.90;;;;;;5114062;28;20200;-60
2022/02/16 07:16:09;;;;;;;2.13;1.30;;;7.80;99.90;;;;;;5115579;28;20196;-60
2022/02/16 07:18:40;;;;;;;1.75;1.65;;;7.80;99.90;;;;;;5117392;28;20203;-60
2022/02/16 07:21:08;;;;;;;2.13;1.50;;;7.90;99.90;;;;;;5116183;28;20235;-59
2022/02/16 07:23:36;;;;;;;2.22;1.50;;;7.90;99.90;;;;;;5116262;28;20199;-60
2022/02/16 07:26:03;;;;;;;2.83;1.75;;;7.90;99.90;;;;;;5116156;28;20200;-59
2022/02/16 07:28:30;;;;;;;3.08;1.35;;;8.00;99.90;;;;;;5115045;28;20223;-61
2022/02/16 07:30:57;;;;;;;3.00;1.70;;;8.00;99.90;;;;;;5114538;28;20226;-60
2022/02/16 07:33:24;;;;;;;1.40;1.30;;;8.00;99.90;;;;;;5114997;28;20230;-60
2022/02/16 07:35:53;;;;;;;3.15;1.85;;;8.00;99.90;;;;;;5114693;28;20199;-59
2022/02/16 07:38:20;;;;;;;1.60;1.30;;;8.10;99.90;;;;;;5114221;28;20659;-62
2022/02/16 07:40:47;;;;;;;1.70;1.48;;;8.10;99.90;;;;;;5114409;28;20223;-60
2022/02/16 07:43:14;;;;;;;1.45;1.35;;;8.10;99.90;;;;;;5113500;28;20206;-60
2022/02/16 07:45:41;;;;;;;2.28;1.30;;;8.00;99.90;;;;;;5113778;28;20207;-60
2022/02/16 07:48:08;;;;;;;1.73;1.25;;;7.90;99.90;;;;;;5113369;28;20730;-61
2022/02/16 07:50:35;;;;;;;1.60;1.50;;;7.80;99.90;;;;;;5113619;28;20601;-61
2022/02/16 07:53:04;;;;;;;2.72;1.50;;;7.80;99.90;;;;;;5113417;28;20686;-60
2022/02/16 07:55:32;;;;;;;3.10;1.42;;;7.70;99.90;;;;;;5113614;28;20200;-59
2022/02/16 07:58:01;;;;;;;2.25;1.33;;;7.70;99.90;;;;;;5113279;28;20253;-59
2022/02/16 08:00:29;;;;;;;3.42;1.90;;;7.60;99.90;;;;;;5113482;28;20227;-59
2022/02/16 08:02:56;;;;;;;1.70;1.45;;;7.60;99.90;;;;;;5114592;28;20522;-61
2022/02/16 08:05:23;;;;;;;1.63;1.50;;;7.60;99.90;;;;;;5113705;28;20257;-60
2022/02/16 08:07:50;;;;;;;1.70;1.50;;;7.50;99.90;;;;;;5113417;28;20226;-61
2022/02/16 08:10:19;;;;;;;2.38;1.50;;;7.50;99.90;;;;;;5113197;28;20224;-58
2022/02/16 08:12:47;;;;;;;4.78;1.95;;;7.50;99.90;;;;;;5113342;28;20203;-59
2022/02/16 08:15:15;;;;;;;2.72;2.17;;;7.50;99.90;;;;;;5113249;28;20204;-57
2022/02/16 08:17:42;;;;;;;2.55;1.70;;;7.50;99.90;;;;;;5112935;28;20195;-63
2022/02/16 08:20:11;;;;;;;2.05;1.67;;;7.50;99.90;;;;;;5112834;28;20230;-61
2022/02/16 08:22:38;;;;;;;2.33;1.27;;;7.50;99.90;;;;;;5113368;28;20207;-58
2022/02/16 08:25:07;;;;;;;1.17;1.05;;;7.60;99.90;;;;;;5113303;28;20230;-59
2022/02/16 08:27:36;;;;;;;1.60;1.45;;;7.60;99.90;;;;;;5113098;28;20200;-57
2022/02/16 08:30:03;;;;;;;2.90;1.60;;;7.60;99.90;;;;;;5113346;28;20226;-59
2022/02/16 08:32:30;;;;;;;1.60;1.10;;;7.70;99.90;;;;;;5112888;28;20574;-57
2022/02/16 08:34:57;;;;;;;1.50;1.23;;;7.80;99.90;;;;;;5113101;28;20716;-56
2022/02/16 08:37:24;;;;;;;1.95;1.35;;;7.80;99.90;;;;;;5113208;28;20576;-56
2022/02/16 08:39:51;;;;;;;3.28;2.22;;;7.90;99.90;;;;;;5112912;28;20590;-58
2022/02/16 08:42:18;;;;;;;2.45;1.30;;;8.00;99.90;;;;;;5112867;28;20207;-59
2022/02/16 08:44:47;;;;;;;1.30;1.10;;;8.00;99.90;;;;;;5113249;28;20204;-60
2022/02/16 08:47:14;;;;;;;10.25;4.80;;;8.00;99.90;;;;;;5112816;28;20202;-61
2022/02/16 08:49:43;;;;;;;10.85;4.97;;;8.00;99.90;;;;;;5112961;28;20246;-60
2022/02/16 08:52:10;;;;;;;3.05;1.15;;;8.10;99.90;;;;;;5112769;28;20668;-59
2022/02/16 08:54:38;;;;;;;1.27;1.17;;;8.10;99.90;;;;;;5114416;28;20211;-58
2022/02/16 08:57:06;;;;;;;1.20;1.10;;;8.20;99.90;;;;;;5117361;28;20200;-58
2022/02/16 08:59:34;;;;;;;1.88;1.50;;;8.20;99.90;;;;;;5117380;28;20593;-59
2022/02/16 09:02:03;;;;;;;1.88;1.20;;;8.20;99.90;;;;;;5117245;28;20366;-59
2022/02/16 09:04:30;;;;;;;1.13;1.00;;;8.30;99.90;;;;;;5116849;28;20195;-57
2022/02/16 09:09:43;;;;;;;1.00;0.90;;;8.30;99.90;;;;;;5116434;28;20234;-59
2022/02/16 09:12:11;;;;;;;1.30;1.20;;;8.40;99.90;;;;;;5116777;28;20747;-58
2022/02/16 09:14:38;;;;;;;1.25;1.15;;;8.40;99.90;;;;;;5116682;28;20211;-58
2022/02/16 09:17:07;;;;;;;5.43;1.27;;;8.40;99.90;;;;;;5116784;28;20199;-58
2022/02/16 09:19:35;;;;;;;0.93;0.65;;;8.30;99.90;;;;;;5116466;28;20330;-58
2022/02/16 09:22:02;;;;;;;1.30;1.20;;;8.20;99.90;;;;;;5116785;28;20187;-58
2022/02/16 09:24:29;;;;;;;1.67;1.30;;;8.20;99.90;;;;;;5116885;28;20203;-56
2022/02/16 09:26:56;;;;;;;1.35;1.10;;;8.10;99.90;;;;;;5116843;28;20207;-57
2022/02/16 09:29:24;;;;;;;3.47;1.10;;;8.20;99.90;;;;;;5116312;28;20235;-59
2022/02/16 09:31:52;;;;;;;1.05;0.95;;;8.20;99.90;;;;;;5116264;28;20222;-58
2022/02/16 09:34:21;;;;;;;1.40;1.02;;;8.30;99.90;;;;;;5116123;28;20207;-58
2022/02/16 09:36:49;;;;;;;1.45;0.70;;;8.30;99.90;;;;;;5115962;28;20675;-58
2022/02/16 09:39:16;;;;;;;1.25;1.15;;;8.30;99.90;;;;;;5115915;28;20686;-57
2022/02/16 09:41:44;;;;;;;2.65;1.10;;;8.40;99.90;;;;;;5115956;28;20675;-58
2022/02/16 09:44:14;;;;;;;2.80;1.00;;;8.40;99.90;;;;;;5115638;28;20203;-57
2022/02/16 09:46:41;;;;;;;1.50;1.10;;;8.40;99.90;;;;;;5115910;28;20246;-56
2022/02/16 09:49:12;;;;;;;4.15;1.10;;;8.40;99.90;;;;;;5115740;28;20290;-57
2022/02/16 09:51:42;;;;;;;2.92;0.70;;;8.40;99.90;;;;;;5115894;28;20593;-58
2022/02/16 09:54:12;;;;;;;1.80;1.00;;;8.40;99.90;;;;;;5115340;28;20207;-60
2022/02/16 09:56:43;;;;;;;0.75;0.75;;;8.40;99.90;;;;;;5115449;28;20207;-58
2022/02/16 09:59:10;;;;;;;0.93;0.85;;;8.40;99.90;;;;;;5115705;28;20188;-58
2022/02/16 10:01:56;;;;;;;1.15;0.80;;;8.50;99.90;;;;;;5115693;28;20257;-56
2022/02/16 10:04:24;;;;;;;1.10;0.80;;;8.50;99.90;;;;;;5115944;28;20221;-57
2022/02/16 10:06:53;;;;;;;0.75;0.75;;;8.50;99.90;;;;;;5115773;28;20195;-59
2022/02/16 10:09:28;;;;;;;1.45;0.70;;;8.60;99.90;;;;;;5115418;28;20699;-59
2022/02/16 10:11:59;;;;;;;1.05;0.80;;;8.60;99.90;;;;;;5115435;28;20195;-61
2022/02/16 10:14:28;;;;;;;2.17;1.10;;;8.70;99.90;;;;;;5115833;28;20196;-60
2022/02/16 10:16:56;;;;;;;0.93;0.70;;;8.70;99.90;;;;;;5115728;28;20204;-60
2022/02/16 10:19:24;;;;;;;0.93;0.60;;;8.80;99.90;;;;;;5115559;28;20238;-60
2022/02/16 10:22:07;;;;;;;0.70;0.60;;;8.90;99.90;;;;;;5136315;22;20455;-59
2022/02/16 10:24:35;;;;;;;0.80;0.70;;;9.00;99.90;;;;;;5116508;28;20241;-64
2022/02/16 10:27:04;;;;;;;0.70;0.50;;;9.00;99.90;;;;;;5115411;28;20278;-62
2022/02/16 10:29:34;;;;;;;0.80;0.65;;;9.00;99.90;;;;;;5115177;28;20706;-62
2022/02/16 10:32:02;;;;;;;1.23;0.60;;;9.00;99.90;;;;;;5115277;28;20288;-65
2022/02/16 10:34:50;;;;;;;1.13;0.70;;;9.00;99.90;;;;;;5115196;28;20246;-64
2022/02/16 10:37:20;;;;;;;0.90;0.90;;;9.10;99.90;;;;;;5115084;28;20203;-62
2022/02/16 10:40:01;;;;;;;0.70;0.50;;;9.00;99.90;;;;;;5114814;28;20190;-62
2022/02/16 10:42:30;;;;;;;0.70;0.70;;;9.10;99.90;;;;;;5114584;28;20699;-63
2022/02/16 10:45:09;;;;;;;0.60;0.60;;;9.00;99.90;;;;;;5115044;28;20215;-62
2022/02/16 10:48:08;;;;;;;0.50;0.50;;;9.10;99.90;;;;;;5115035;28;20249;-62
2022/02/16 10:50:39;;;;;;;0.80;0.60;;;9.10;99.90;;;;;;5012037;28;20241;-64
2022/02/16 10:53:11;;;;;;;1.20;0.80;;;9.20;99.90;;;;;;5094796;28;20207;-64
2022/02/16 10:55:42;;;;;;;0.88;0.80;;;9.20;99.90;;;;;;5115651;28;20279;-65
2022/02/16 10:58:11;;;;;;;0.70;0.60;;;9.30;99.90;;;;;;5114886;28;20199;-65
2022/02/16 11:00:40;;;;;;;1.13;1.02;;;9.50;99.90;;;;;;5114928;28;20726;-62
2022/02/16 11:03:08;;;;;;;0.65;0.55;;;9.50;99.90;;;;;;5115838;28;20564;-63
2022/02/16 11:05:42;;;;;;;0.80;0.60;;;9.60;99.90;;;;;;5114919;28;20203;-65
2022/02/16 11:08:13;;;;;;;1.83;1.10;;;9.60;99.90;;;;;;5115191;28;20605;-62
2022/02/16 11:10:42;;;;;;;0.73;0.43;;;9.60;99.90;;;;;;5114515;28;20534;-61
2022/02/16 11:13:11;;;;;;;0.90;0.70;;;9.60;99.90;;;;;;5114292;28;20942;-63
2022/02/16 11:15:39;;;;;;;1.02;0.70;;;9.60;99.90;;;;;;5115183;28;20804;-63
2022/02/16 11:18:14;;;;;;;0.60;0.57;;;9.70;99.90;;;;;;5114876;28;20204;-63
2022/02/16 11:20:45;;;;;;;1.57;0.70;;;9.70;99.90;;;;;;5114388;28;20461;-61
2022/02/16 11:23:14;;;;;;;0.90;0.67;;;9.80;99.90;;;;;;5114230;28;20465;-63
2022/02/16 11:25:43;;;;;;;0.87;0.70;;;9.90;99.90;;;;;;5116302;28;20502;-59
2022/02/16 11:28:12;;;;;;;0.70;0.70;;;10.00;99.90;;;;;;5114165;28;20475;-63
2022/02/16 11:30:44;;;;;;;0.70;0.60;;;10.00;99.90;;;;;;5114396;28;20485;-61
2022/02/16 11:33:17;;;;;;;1.87;0.60;;;10.10;99.90;;;;;;5113981;28;20449;-61
2022/02/16 11:35:50;;;;;;;2.73;1.80;;;10.10;99.90;;;;;;5113873;28;20433;-62
2022/02/16 11:38:20;;;;;;;0.83;0.70;;;10.20;99.90;;;;;;5113403;28;20500;-60
2022/02/16 11:40:49;;;;;;;0.80;0.73;;;10.30;99.90;;;;;;5113534;28;20457;-61
2022/02/16 11:43:19;;;;;;;1.37;0.90;;;10.40;99.90;;;;;;5114117;28;20445;-62
2022/02/16 11:45:57;;;;;;;0.80;0.63;;;10.50;99.90;;;;;;5114636;28;20548;-61
2022/02/16 11:48:43;;;;;;;1.53;0.67;;;10.60;99.90;;;;;;5114758;28;20467;-60
2022/02/16 11:51:48;;;;;;;0.90;0.60;;;10.60;99.90;;;;;;5114079;28;20517;-60
2022/02/16 11:54:52;;;;;;;0.70;0.60;;;10.70;99.90;;;;;;5113847;28;20513;-61
2022/02/16 11:57:42;;;;;;;0.80;0.57;;;10.80;99.90;;;;;;5113753;28;20817;-62
2022/02/16 12:00:23;;;;;;;0.60;0.60;;;10.90;99.90;;;;;;5113626;28;20787;-59
2022/02/16 12:03:20;;;;;;;2.23;0.80;;;11.00;99.90;;;;;;5113861;28;20841;-61
2022/02/16 12:06:03;;;;;;;1.47;0.80;;;11.00;99.90;;;;;;5114595;28;20844;-63
2022/02/16 12:08:33;;;;;;;0.97;0.80;;;11.00;99.90;;;;;;5113660;28;20465;-62
2022/02/16 12:11:07;;;;;;;0.90;0.90;;;11.10;99.90;;;;;;5113185;28;20489;-64
2022/02/16 12:13:38;;;;;;;0.90;0.80;;;11.10;99.90;;;;;;5113466;28;20429;-64
2022/02/16 12:16:08;;;;;;;0.90;0.80;;;11.10;99.90;;;;;;5113133;28;20880;-64
2022/02/16 12:18:36;;;;;;;1.03;0.93;;;11.20;99.90;;;;;;5113286;28;20450;-63
2022/02/16 12:21:05;;;;;;;1.00;0.90;;;11.20;99.90;;;;;;5113143;28;20517;-64
2022/02/16 12:23:40;;;;;;;1.30;1.20;;;11.20;99.90;;;;;;5113219;28;20450;-64
2022/02/16 12:26:14;;;;;;;1.27;1.17;;;11.30;99.90;;;;;;5119132;28;20814;-63
2022/02/16 12:29:13;;;;;;;1.03;0.93;;;11.40;99.90;;;;;;5113584;28;20993;-65
2022/02/16 12:31:43;;;;;;;1.80;1.10;;;11.30;99.90;;;;;;5117409;28;20892;-60
2022/02/16 12:34:13;;;;;;;1.27;1.17;;;11.40;99.90;;;;;;5117720;28;20440;-62
2022/02/16 12:36:52;;;;;;;3.30;1.23;;;11.40;99.90;;;;;;5118830;28;20441;-61
2022/02/16 12:39:19;;;;;;;1.50;1.40;;;11.40;99.90;;;;;;5117364;28;20436;-60
2022/02/16 12:41:47;;;;;;;0.97;0.90;;;11.40;99.90;;;;;;5117006;28;20462;-62
2022/02/16 12:44:21;;;;;;;1.20;1.10;;;11.40;99.90;;;;;;5116981;28;20449;-64
2022/02/16 12:46:50;;;;;;;7.00;1.53;;;11.40;99.90;;;;;;5116900;28;20430;-63
2022/02/16 12:49:21;;;;;;;1.97;1.30;;;11.40;99.90;;;;;;5116647;28;20458;-64
2022/02/16 12:51:49;;;;;;;1.50;1.40;;;11.40;99.90;;;;;;5116416;28;20513;-64
2022/02/16 12:54:20;;;;;;;1.43;1.17;;;11.40;99.90;;;;;;5116638;28;20452;-65
2022/02/16 12:56:50;;;;;;;1.30;1.20;;;11.40;99.90;;;;;;5117004;28;20437;-64
2022/02/16 12:59:22;;;;;;;1.43;1.10;;;11.40;99.90;;;;;;5120648;28;20480;-65
2022/02/16 13:01:50;;;;;;;1.50;1.00;;;11.50;99.90;;;;;;5116432;28;20460;-63
2022/02/16 13:04:18;;;;;;;1.50;1.00;;;11.50;99.90;;;;;;5116912;28;20449;-62
2022/02/16 13:06:47;;;;;;;1.00;0.90;;;11.50;99.90;;;;;;5116755;28;20861;-64
2022/02/16 13:09:17;;;;;;;1.97;1.27;;;11.50;99.90;;;;;;5116969;28;20445;-65